createdAt,value
2023-05-04T00:00:21.173Z,73.96
2023-05-04T00:03:11.112Z,74.75
2023-05-04T00:05:40.865Z,74.65
2023-05-04T00:08:11.972Z,74.19
2023-05-04T00:10:41.789Z,74.93
2023-05-04T00:13:14.316Z,74.85
2023-05-04T00:15:44.827Z,74.61
2023-05-04T00:18:14.696Z,75.07
2023-05-04T00:20:44.296Z,74.98
2023-05-04T00:23:13.894Z,74.65
2023-05-04T00:25:43.437Z,74.83
2023-05-04T00:28:13.160Z,75.15
2023-05-04T00:30:42.740Z,75.00
2023-05-04T00:33:12.679Z,75.14
2023-05-04T00:35:42.054Z,75.84
2023-05-04T00:38:14.014Z,76.12
2023-05-04T00:40:45.825Z,76.07
2023-05-04T00:43:15.460Z,76.55
2023-05-04T00:45:45.725Z,75.50
2023-05-04T00:48:15.885Z,76.17
2023-05-04T00:50:45.740Z,76.48
2023-05-04T00:53:15.618Z,76.27
2023-05-04T00:55:46.719Z,76.12
2023-05-04T00:58:18.703Z,76.16
2023-05-04T01:00:48.209Z,75.80
2023-05-04T01:03:19.394Z,75.33
2023-05-04T01:06:49.053Z,75.80
2023-05-04T01:10:02.430Z,75.95
2023-05-04T01:12:45.334Z,76.50
2023-05-04T01:15:16.472Z,76.13
2023-05-04T01:17:46.656Z,76.19
2023-05-04T01:20:16.368Z,76.15
2023-05-04T01:22:46.119Z,76.07
2023-05-04T01:25:17.021Z,76.50
2023-05-04T01:27:56.586Z,77.10
2023-05-04T01:30:44.203Z,77.38
2023-05-04T01:33:16.424Z,76.95
2023-05-04T01:35:47.164Z,76.71
2023-05-04T01:38:16.822Z,77.27
2023-05-04T01:40:46.363Z,77.02
2023-05-04T01:43:16.542Z,77.72
2023-05-04T01:45:46.244Z,77.72
2023-05-04T01:48:16.670Z,77.90
2023-05-04T01:50:46.339Z,77.53
2023-05-04T01:53:15.766Z,77.55
2023-05-04T01:55:45.328Z,78.01
2023-05-04T01:58:14.930Z,77.63
2023-05-04T02:00:44.861Z,77.79
2023-05-04T02:03:14.454Z,77.95
2023-05-04T02:05:44.233Z,78.47
2023-05-04T02:08:13.875Z,78.66
2023-05-04T02:10:43.300Z,78.59
2023-05-04T02:13:13.659Z,78.10
2023-05-04T02:15:44.267Z,78.61
2023-05-04T02:18:13.942Z,77.17
2023-05-04T02:20:44.582Z,77.55
2023-05-04T02:23:17.060Z,78.20
2023-05-04T02:25:48.080Z,77.92
2023-05-04T02:28:17.594Z,77.96
2023-05-04T02:30:47.208Z,78.07
2023-05-04T02:33:16.743Z,78.09
2023-05-04T02:35:46.473Z,78.14
2023-05-04T02:38:18.721Z,77.94
2023-05-04T02:40:48.415Z,78.04
2023-05-04T02:43:18.011Z,78.10
2023-05-04T02:45:47.610Z,78.42
2023-05-04T02:48:17.195Z,78.30
2023-05-04T02:50:46.664Z,78.30
2023-05-04T02:53:16.444Z,78.85
2023-05-04T02:55:46.874Z,78.94
2023-05-04T02:58:16.463Z,78.61
2023-05-04T03:00:46.012Z,78.44
2023-05-04T03:03:15.712Z,78.42
2023-05-04T03:05:47.046Z,79.32
2023-05-04T03:08:16.647Z,79.10
2023-05-04T03:10:46.288Z,78.95
2023-05-04T03:13:16.835Z,79.13
2023-05-04T03:15:46.839Z,79.16
2023-05-04T03:18:17.924Z,79.46
2023-05-04T03:20:47.985Z,79.59
2023-05-04T03:23:20.686Z,79.75
2023-05-04T03:25:50.855Z,79.94
2023-05-04T03:28:20.505Z,79.83
2023-05-04T03:30:51.005Z,80.30
2023-05-04T03:33:21.044Z,80.36
2023-05-04T03:35:50.908Z,79.83
2023-05-04T03:38:20.691Z,79.70
2023-05-04T03:40:50.262Z,79.61
2023-05-04T03:43:20.397Z,80.14
2023-05-04T03:45:51.642Z,80.66
2023-05-04T03:48:21.868Z,80.52
2023-05-04T03:50:51.572Z,80.67
2023-05-04T03:53:21.799Z,80.05
2023-05-04T03:55:52.358Z,80.43
2023-05-04T03:58:22.454Z,80.68
2023-05-04T04:00:52.666Z,80.51
2023-05-04T04:03:22.814Z,79.87
2023-05-04T04:05:53.150Z,80.50
2023-05-04T04:08:23.446Z,79.77
2023-05-04T04:10:52.903Z,80.41
2023-05-04T04:13:22.588Z,80.79
2023-05-04T04:15:52.101Z,81.40
2023-05-04T04:18:24.156Z,80.90
2023-05-04T04:20:53.867Z,80.98
2023-05-04T04:23:24.989Z,81.25
2023-05-04T04:25:54.496Z,81.26
2023-05-04T04:28:23.895Z,81.56
2023-05-04T04:30:53.452Z,80.71
2023-05-04T04:33:22.849Z,81.00
2023-05-04T04:35:53.423Z,81.69
2023-05-04T04:38:22.952Z,81.31
2023-05-04T04:40:52.906Z,81.02
2023-05-04T04:43:22.300Z,82.50
2023-05-04T04:45:54.050Z,81.68
2023-05-04T04:48:25.555Z,82.59
2023-05-04T04:50:55.070Z,82.91
2023-05-04T04:53:26.841Z,82.58
2023-05-04T04:55:56.239Z,83.53
2023-05-04T04:58:26.721Z,83.65
2023-05-04T05:00:58.529Z,85.54
2023-05-04T05:03:29.812Z,85.48
2023-05-04T05:06:01.866Z,85.72
2023-05-04T05:08:35.039Z,85.56
2023-05-04T05:11:06.298Z,86.09
2023-05-04T05:13:35.993Z,86.33
2023-05-04T05:16:06.351Z,85.82
2023-05-04T05:18:37.156Z,86.11
2023-05-04T05:21:07.577Z,86.10
2023-05-04T05:23:38.275Z,85.90
2023-05-04T05:26:10.628Z,86.15
2023-05-04T05:28:40.100Z,86.22
2023-05-04T05:31:09.908Z,85.99
2023-05-04T05:33:42.412Z,85.79
2023-05-04T05:36:15.743Z,85.56
2023-05-04T05:38:47.849Z,85.99
2023-05-04T05:41:21.474Z,85.80
2023-05-04T05:43:51.206Z,85.53
2023-05-04T05:46:37.164Z,85.77
2023-05-04T05:49:07.588Z,85.64
2023-05-04T05:51:37.329Z,85.46
2023-05-04T05:54:07.370Z,85.11
2023-05-04T05:56:36.819Z,85.04
2023-05-04T05:59:06.473Z,85.11
2023-05-04T06:01:38.498Z,84.99
2023-05-04T06:04:08.082Z,84.75
2023-05-04T06:06:38.218Z,84.27
2023-05-04T06:09:08.283Z,83.82
2023-05-04T06:11:38.747Z,83.66
2023-05-04T06:14:08.321Z,83.14
2023-05-04T06:16:37.914Z,82.96
2023-05-04T06:19:14.985Z,82.83
2023-05-04T06:21:44.588Z,82.30
2023-05-04T06:24:15.365Z,81.52
2023-05-04T06:26:46.567Z,80.85
2023-05-04T06:29:18.491Z,80.78
2023-05-04T06:31:48.493Z,81.01
2023-05-04T06:34:18.920Z,79.83
2023-05-04T06:36:50.620Z,79.05
2023-05-04T06:39:20.239Z,79.30
2023-05-04T06:41:49.858Z,79.50
2023-05-04T06:44:20.473Z,79.68
2023-05-04T06:46:53.881Z,78.90
2023-05-04T06:49:25.305Z,78.84
2023-05-04T06:51:55.497Z,79.05
2023-05-04T06:54:25.380Z,79.25
2023-05-04T06:56:54.864Z,79.27
2023-05-04T06:59:25.073Z,78.97
2023-05-04T07:01:55.776Z,78.38
2023-05-04T07:04:28.603Z,78.25
2023-05-04T07:06:59.732Z,78.02
2023-05-04T07:09:29.461Z,77.89
2023-05-04T07:11:59.050Z,77.98
2023-05-04T07:14:28.683Z,78.05
2023-05-04T07:17:04.812Z,78.01
2023-05-04T07:19:35.073Z,78.03
2023-05-04T07:22:05.682Z,78.00
2023-05-04T07:24:35.323Z,78.24
2023-05-04T07:27:07.782Z,77.93
2023-05-04T07:29:37.594Z,77.31
2023-05-04T07:32:12.093Z,77.09
2023-05-04T07:34:46.230Z,76.60
2023-05-04T07:37:20.028Z,75.72
2023-05-04T07:39:51.625Z,75.60
2023-05-04T07:42:23.752Z,75.88
2023-05-04T07:44:53.388Z,75.90
2023-05-04T07:47:24.786Z,75.64
2023-05-04T07:49:54.315Z,76.34
2023-05-04T07:52:23.887Z,76.32
2023-05-04T07:54:55.622Z,76.83
2023-05-04T07:57:27.413Z,76.20
2023-05-04T08:00:02.674Z,75.73
2023-05-04T08:02:43.886Z,75.47
2023-05-04T08:05:15.097Z,76.00
2023-05-04T08:07:44.795Z,76.04
2023-05-04T08:10:14.600Z,76.05
2023-05-04T08:12:45.017Z,76.11
2023-05-04T08:15:17.808Z,75.19
2023-05-04T08:17:49.283Z,75.20
2023-05-04T08:20:21.668Z,74.91
2023-05-04T08:22:52.305Z,74.47
2023-05-04T08:25:25.621Z,74.32
2023-05-04T08:27:59.601Z,74.53
2023-05-04T08:30:31.906Z,74.15
2023-05-04T08:33:01.925Z,73.52
2023-05-04T08:35:33.014Z,72.89
2023-05-04T08:38:02.625Z,73.14
2023-05-04T08:40:35.238Z,73.45
2023-05-04T08:43:05.403Z,73.63
2023-05-04T08:45:40.887Z,71.98
2023-05-04T08:48:10.815Z,71.68
2023-05-04T08:50:41.409Z,69.67
2023-05-04T08:53:16.600Z,70.04
2023-05-04T08:55:47.837Z,70.88
2023-05-04T08:58:19.317Z,69.48
2023-05-04T09:00:52.870Z,70.22
2023-05-04T09:03:22.500Z,70.10
2023-05-04T09:05:54.452Z,67.73
2023-05-04T09:08:24.272Z,68.62
2023-05-04T09:10:53.951Z,67.42
2023-05-04T09:13:23.383Z,68.14
2023-05-04T09:15:57.969Z,69.07
2023-05-04T09:18:41.663Z,68.97
2023-05-04T09:21:12.251Z,68.03
2023-05-04T09:23:52.232Z,66.78
2023-05-04T09:26:32.161Z,66.67
2023-05-04T09:29:14.204Z,66.66
2023-05-04T09:31:52.849Z,66.14
2023-05-04T09:34:23.394Z,65.70
2023-05-04T09:37:02.929Z,64.75
2023-05-04T09:39:33.285Z,63.45
2023-05-04T09:42:02.876Z,64.29
2023-05-04T09:44:33.256Z,64.06
2023-05-04T09:47:02.940Z,62.16
2023-05-04T09:49:38.323Z,60.22
2023-05-04T09:52:07.932Z,59.51
2023-05-04T09:54:41.846Z,60.29
2023-05-04T09:57:15.642Z,62.49
2023-05-04T09:59:45.094Z,63.11
2023-05-04T10:02:22.445Z,62.25
2023-05-04T10:04:57.629Z,62.29
2023-05-04T10:07:32.669Z,62.41
2023-05-04T10:10:02.382Z,61.27
2023-05-04T10:12:33.098Z,61.51
2023-05-04T10:15:03.694Z,60.81
2023-05-04T10:18:17.895Z,60.26
2023-05-04T10:21:02.628Z,58.81
2023-05-04T10:24:00.681Z,57.53
2023-05-04T10:26:48.430Z,58.31
2023-05-04T10:29:24.154Z,57.22
2023-05-04T10:31:53.898Z,57.32
2023-05-04T10:34:35.560Z,57.73
2023-05-04T10:37:16.251Z,57.11
2023-05-04T10:39:55.444Z,57.00
2023-05-04T10:42:25.163Z,55.50
2023-05-04T10:44:59.451Z,54.35
2023-05-04T10:47:33.668Z,53.62
2023-05-04T10:50:14.663Z,52.53
2023-05-04T10:52:53.995Z,52.40
2023-05-04T10:55:24.809Z,52.26
2023-05-04T10:57:58.446Z,51.05
2023-05-04T11:00:42.495Z,49.97
2023-05-04T11:03:12.985Z,49.79
2023-05-04T11:05:48.652Z,49.43
2023-05-04T11:08:24.387Z,50.04
2023-05-04T11:11:07.792Z,49.68
2023-05-04T11:13:46.437Z,48.66
2023-05-04T11:16:24.742Z,47.50
2023-05-04T11:18:55.462Z,46.93
2023-05-04T11:21:26.650Z,46.90
2023-05-04T11:24:00.557Z,48.01
2023-05-04T11:26:30.104Z,47.35
2023-05-04T11:28:59.929Z,48.80
2023-05-04T11:31:29.328Z,49.78
2023-05-04T11:33:58.906Z,48.85
2023-05-04T11:36:29.389Z,47.86
2023-05-04T11:38:59.299Z,49.05
2023-05-04T11:41:29.958Z,49.97
2023-05-04T11:44:02.013Z,50.06
2023-05-04T11:46:35.674Z,50.31
2023-05-04T11:49:06.816Z,49.39
2023-05-04T11:51:40.609Z,48.97
2023-05-04T11:54:21.840Z,48.92
2023-05-04T11:56:51.239Z,47.49
2023-05-04T11:59:20.818Z,47.05
2023-05-04T12:01:50.378Z,47.59
2023-05-04T12:04:19.824Z,46.73
2023-05-04T12:06:50.454Z,46.07
2023-05-04T12:09:19.906Z,45.96
2023-05-04T12:11:56.793Z,47.10
2023-05-04T12:14:28.527Z,46.62
2023-05-04T12:17:01.936Z,46.74
2023-05-04T12:19:33.013Z,47.05
2023-05-04T12:22:41.199Z,46.16
2023-05-04T12:25:11.649Z,45.34
2023-05-04T12:27:41.974Z,45.26
2023-05-04T12:30:12.654Z,43.62
2023-05-04T12:32:44.409Z,42.97
2023-05-04T12:35:13.963Z,42.48
2023-05-04T12:37:43.587Z,42.06
2023-05-04T12:40:27.805Z,42.94
2023-05-04T12:42:58.874Z,42.26
2023-05-04T12:45:29.231Z,41.80
2023-05-04T12:47:59.569Z,42.06
2023-05-04T12:50:29.272Z,41.56
2023-05-04T12:52:58.846Z,40.05
2023-05-04T12:55:28.520Z,39.47
2023-05-04T12:57:58.335Z,39.30
2023-05-04T13:00:34.051Z,38.88
2023-05-04T13:03:07.112Z,41.15
2023-05-04T13:05:36.772Z,40.92
2023-05-04T13:08:06.114Z,40.00
2023-05-04T13:10:35.973Z,38.98
2023-05-04T13:13:05.339Z,39.17
2023-05-04T13:15:35.488Z,37.74
2023-05-04T13:18:05.100Z,37.27
2023-05-04T13:20:34.705Z,37.07
2023-05-04T13:23:04.026Z,36.97
2023-05-04T13:25:33.547Z,37.93
2023-05-04T13:28:03.460Z,37.74
2023-05-04T13:30:33.023Z,37.34
2023-05-04T13:33:05.680Z,36.76
2023-05-04T13:35:43.730Z,37.04
2023-05-04T13:38:13.864Z,38.35
2023-05-04T13:40:44.662Z,39.90
2023-05-04T13:43:14.189Z,40.81
2023-05-04T13:45:43.565Z,41.13
2023-05-04T13:48:12.962Z,41.08
2023-05-04T13:50:42.290Z,41.36
2023-05-04T13:53:11.731Z,41.77
2023-05-04T13:55:41.280Z,41.47
2023-05-04T13:58:11.264Z,41.08
2023-05-04T14:00:41.196Z,41.93
2023-05-04T14:03:11.884Z,42.02
2023-05-04T14:05:41.693Z,42.99
2023-05-04T14:08:11.209Z,42.67
2023-05-04T14:10:40.647Z,43.45
2023-05-04T14:13:10.305Z,43.52
2023-05-04T14:15:39.771Z,43.62
2023-05-04T14:18:09.276Z,44.18
2023-05-04T14:20:38.852Z,44.72
2023-05-04T14:23:08.196Z,45.95
2023-05-04T14:25:37.569Z,45.99
2023-05-04T14:28:07.022Z,46.94
2023-05-04T14:30:36.915Z,47.86
2023-05-04T14:33:06.401Z,48.52
2023-05-04T14:35:37.724Z,48.80
2023-05-04T14:38:06.998Z,48.24
2023-05-04T14:40:36.549Z,48.77
2023-05-04T14:43:06.042Z,48.97
2023-05-04T14:45:35.491Z,49.00
2023-05-04T14:48:05.439Z,49.31
2023-05-04T14:50:35.666Z,49.14
2023-05-04T14:53:04.985Z,48.60
2023-05-04T14:55:36.767Z,49.02
2023-05-04T14:58:06.103Z,49.47
2023-05-04T15:00:38.341Z,49.56
2023-05-04T15:03:09.661Z,49.52
2023-05-04T15:05:39.574Z,49.59
2023-05-04T15:08:08.917Z,50.28
2023-05-04T15:10:38.262Z,50.67
2023-05-04T15:13:07.755Z,50.44
2023-05-04T15:15:40.693Z,50.31
2023-05-04T15:18:10.312Z,48.85
2023-05-04T15:20:39.848Z,46.72
2023-05-04T15:23:12.709Z,47.31
2023-05-04T15:25:42.752Z,47.95
2023-05-04T15:28:14.385Z,47.95
2023-05-04T15:30:44.352Z,48.65
2023-05-04T15:33:37.697Z,48.72
2023-05-04T15:36:10.323Z,47.60
2023-05-04T15:38:40.069Z,46.56
2023-05-04T15:41:14.481Z,46.82
2023-05-04T15:43:47.464Z,46.86
2023-05-04T15:46:17.110Z,47.70
2023-05-04T15:48:46.453Z,48.56
2023-05-04T15:51:15.981Z,49.59
2023-05-04T15:53:46.755Z,50.85
2023-05-04T15:56:17.115Z,51.54
2023-05-04T15:58:46.678Z,52.04
2023-05-04T16:01:16.771Z,52.80
2023-05-04T16:03:46.326Z,53.67
2023-05-04T16:06:17.598Z,54.13
2023-05-04T16:08:47.616Z,54.71
2023-05-04T16:11:18.162Z,54.98
2023-05-04T16:13:50.385Z,55.67
2023-05-04T16:16:20.015Z,56.16
2023-05-04T16:18:49.591Z,56.51
2023-05-04T16:21:19.761Z,56.88
2023-05-04T16:23:49.978Z,57.01
2023-05-04T16:26:19.749Z,56.95
2023-05-04T16:28:50.574Z,57.12
2023-05-04T16:31:20.189Z,57.65
2023-05-04T16:33:49.751Z,58.00
2023-05-04T16:36:23.570Z,58.35
2023-05-04T16:38:53.383Z,58.29
2023-05-04T16:41:22.961Z,58.56
2023-05-04T16:43:52.580Z,58.75
2023-05-04T16:46:22.957Z,59.14
2023-05-04T16:48:52.610Z,59.33
2023-05-04T16:51:23.359Z,59.74
2023-05-04T16:53:52.715Z,60.09
2023-05-04T16:56:23.401Z,60.16
2023-05-04T16:58:53.052Z,59.99
2023-05-04T17:01:22.389Z,60.22
2023-05-04T17:03:52.186Z,60.33
2023-05-04T17:06:22.747Z,60.28
2023-05-04T17:08:52.155Z,60.73
2023-05-04T17:11:23.988Z,60.93
2023-05-04T17:13:53.521Z,61.41
2023-05-04T17:16:23.142Z,61.45
2023-05-04T17:18:52.741Z,61.72
2023-05-04T17:21:22.322Z,61.72
2023-05-04T17:23:52.018Z,62.29
2023-05-04T17:26:21.774Z,61.97
2023-05-04T17:28:51.862Z,62.48
2023-05-04T17:31:21.308Z,63.36
2023-05-04T17:33:51.411Z,62.90
2023-05-04T17:36:20.895Z,62.69
2023-05-04T17:38:50.391Z,63.39
2023-05-04T17:41:19.917Z,63.51
2023-05-04T17:43:50.393Z,63.57
2023-05-04T17:46:21.818Z,63.81
2023-05-04T17:48:53.608Z,63.44
2023-05-04T17:51:23.138Z,63.71
2023-05-04T17:53:52.643Z,64.07
2023-05-04T17:56:22.152Z,65.04
2023-05-04T17:58:51.611Z,65.36
2023-05-04T18:01:21.765Z,65.51
2023-05-04T18:03:52.438Z,65.32
2023-05-04T18:06:21.964Z,65.40
2023-05-04T18:08:51.575Z,65.82
2023-05-04T18:11:21.026Z,65.89
2023-05-04T18:13:51.671Z,65.81
2023-05-04T18:16:21.230Z,65.93
2023-05-04T18:18:53.885Z,66.05
2023-05-04T18:21:23.609Z,66.01
2023-05-04T18:23:53.100Z,66.42
2023-05-04T18:26:22.954Z,66.55
2023-05-04T18:28:52.583Z,66.38
2023-05-04T18:31:23.460Z,66.20
2023-05-04T18:33:52.942Z,66.42
2023-05-04T18:36:22.653Z,66.31
2023-05-04T18:38:53.406Z,66.45
2023-05-04T18:41:25.144Z,66.08
2023-05-04T18:43:57.731Z,66.30
2023-05-04T18:46:27.795Z,66.90
2023-05-04T18:48:57.245Z,66.83
2023-05-04T18:51:28.038Z,66.57
2023-05-04T18:53:58.139Z,66.80
2023-05-04T18:56:27.550Z,67.57
2023-05-04T18:58:56.918Z,68.11
2023-05-04T19:01:27.979Z,68.64
2023-05-04T19:03:57.420Z,68.89
2023-05-04T19:06:26.847Z,69.16
2023-05-04T19:08:56.240Z,69.30
2023-05-04T19:11:25.920Z,69.01
2023-05-04T19:13:56.413Z,69.53
2023-05-04T19:16:28.417Z,69.35
2023-05-04T19:18:58.031Z,69.19
2023-05-04T19:21:28.611Z,69.11
2023-05-04T19:23:58.215Z,68.85
2023-05-04T19:26:27.618Z,69.10
2023-05-04T19:28:57.050Z,69.07
2023-05-04T19:31:27.552Z,69.18
2023-05-04T19:33:56.932Z,68.80
2023-05-04T19:36:27.640Z,69.14
2023-05-04T19:38:58.141Z,68.91
2023-05-04T19:41:27.628Z,69.43
2023-05-04T19:43:57.131Z,69.29
2023-05-04T19:46:26.986Z,69.49
2023-05-04T19:48:56.301Z,69.91
2023-05-04T19:51:25.752Z,70.28
2023-05-04T19:53:55.710Z,70.68
2023-05-04T19:56:25.221Z,71.13
2023-05-04T19:58:55.130Z,71.17
2023-05-04T20:01:24.990Z,71.31
2023-05-04T20:03:54.821Z,70.97
2023-05-04T20:06:24.707Z,70.67
2023-05-04T20:08:55.192Z,70.60
2023-05-04T20:11:24.945Z,70.81
2023-05-04T20:13:55.891Z,71.15
2023-05-04T20:16:26.199Z,71.16
2023-05-04T20:18:57.081Z,71.20
2023-05-04T20:21:26.522Z,71.57
2023-05-04T20:23:56.218Z,71.92
2023-05-04T20:26:25.672Z,71.53
2023-05-04T20:28:55.240Z,71.76
2023-05-04T20:31:24.617Z,72.40
2023-05-04T20:33:54.061Z,72.14
2023-05-04T20:36:23.523Z,72.26
2023-05-04T20:38:54.625Z,72.49
2023-05-04T20:41:24.547Z,72.51
2023-05-04T20:43:54.059Z,73.02
2023-05-04T20:46:23.614Z,73.54
2023-05-04T20:48:53.490Z,73.37
2023-05-04T20:51:23.230Z,73.14
2023-05-04T20:53:53.266Z,73.33
2023-05-04T20:56:22.773Z,73.38
2023-05-04T20:58:52.345Z,73.72
2023-05-04T21:01:21.834Z,73.15
2023-05-04T21:03:51.414Z,72.83
2023-05-04T21:06:24.476Z,73.02
2023-05-04T21:08:53.953Z,73.24
2023-05-04T21:11:23.290Z,73.43
2023-05-04T21:13:52.918Z,73.65
2023-05-04T21:16:22.469Z,73.77
2023-05-04T21:18:52.051Z,73.51
2023-05-04T21:21:21.508Z,73.51
2023-05-04T21:23:53.077Z,73.80
2023-05-04T21:26:22.352Z,74.25
2023-05-04T21:28:51.853Z,74.06
2023-05-04T21:31:21.257Z,73.72
2023-05-04T21:33:51.480Z,73.76
2023-05-04T21:36:22.054Z,73.88
2023-05-04T21:38:51.518Z,73.94
2023-05-04T21:41:22.020Z,74.40
2023-05-04T21:43:51.417Z,74.51
2023-05-04T21:46:21.045Z,74.60
2023-05-04T21:48:51.990Z,74.20
2023-05-04T21:51:21.357Z,74.19
2023-05-04T21:53:50.965Z,74.16
2023-05-04T21:56:21.265Z,73.80
2023-05-04T21:58:50.704Z,74.27
2023-05-04T22:01:20.289Z,74.46
2023-05-04T22:03:49.657Z,74.49
2023-05-04T22:06:21.864Z,74.32
2023-05-04T22:08:51.230Z,74.25
2023-05-04T22:11:20.680Z,75.32
2023-05-04T22:13:50.048Z,75.56
2023-05-04T22:16:20.876Z,75.39
2023-05-04T22:18:50.312Z,75.48
2023-05-04T22:21:19.734Z,75.20
2023-05-04T22:23:49.168Z,74.68
2023-05-04T22:26:18.639Z,75.05
2023-05-04T22:28:48.272Z,74.92
2023-05-04T22:31:17.720Z,74.72
2023-05-04T22:33:47.244Z,74.76
2023-05-04T22:36:17.324Z,75.35
2023-05-04T22:38:46.917Z,75.65
2023-05-04T22:41:16.322Z,75.64
2023-05-04T22:43:45.737Z,75.22
2023-05-04T22:46:17.139Z,75.19
2023-05-04T22:48:49.697Z,75.97
2023-05-04T22:51:19.769Z,76.17
2023-05-04T22:53:49.084Z,76.98
2023-05-04T22:56:18.384Z,77.13
2023-05-04T22:58:48.518Z,76.51
2023-05-04T23:01:18.256Z,76.22
2023-05-04T23:03:48.924Z,75.99
2023-05-04T23:06:18.319Z,76.23
2023-05-04T23:08:47.653Z,77.03
2023-05-04T23:11:22.225Z,77.21
2023-05-04T23:13:51.592Z,77.08
2023-05-04T23:16:21.086Z,76.93
2023-05-04T23:18:50.817Z,77.48
2023-05-04T23:21:21.222Z,77.75
2023-05-04T23:23:53.662Z,77.69
2023-05-04T23:26:23.971Z,77.20
2023-05-04T23:28:53.769Z,77.25
2023-05-04T23:31:24.031Z,77.84
2023-05-04T23:33:53.404Z,77.80
2023-05-04T23:36:23.115Z,78.11
2023-05-04T23:38:52.876Z,78.11
2023-05-04T23:41:22.240Z,77.67
2023-05-04T23:43:51.713Z,77.44
2023-05-04T23:46:21.281Z,77.56
2023-05-04T23:48:50.648Z,77.75
2023-05-04T23:51:21.347Z,77.91
2023-05-04T23:53:50.794Z,77.59
2023-05-04T23:56:20.596Z,77.30
2023-05-04T23:58:49.917Z,77.21
